Time;durP1;ratioP1;P1;durP2;ratioP2;P2;SDS_P1;SDS_P2;PMS_P1;PMS_P2;Temp;Humidity;BMP_temperature;BMP_pressure;BME280_temperature;BME280_humidity;BME280_pressure;Samples;Min_cycle;Max_cycle;Signal;HPM_P1;HPM_P2
2021/12/03 00:00:00;;;;;;;6.83;3.70;;;1.50;99.90;;;;;;4933867;29;20519;-76
2021/12/03 00:02:26;;;;;;;3.70;3.13;;;1.50;99.90;;;;;;4927415;29;20516;-76
2021/12/03 00:04:51;;;;;;;5.60;4.20;;;1.50;99.90;;;;;;4927524;29;20432;-76
2021/12/03 00:07:17;;;;;;;4.00;3.30;;;1.50;99.90;;;;;;4933714;28;20221;-76
2021/12/03 00:09:42;;;;;;;5.20;3.80;;;1.40;99.90;;;;;;4925398;29;20217;-75
2021/12/03 00:12:09;;;;;;;5.50;3.93;;;1.40;99.90;;;;;;4933860;29;20259;-74
2021/12/03 00:14:35;;;;;;;5.57;3.40;;;1.40;99.90;;;;;;4932862;29;20655;-76
2021/12/03 00:17:02;;;;;;;5.20;4.70;;;1.30;99.90;;;;;;4934117;29;20481;-75
2021/12/03 00:19:28;;;;;;;4.00;3.50;;;1.30;99.90;;;;;;4934053;29;20392;-76
2021/12/03 00:21:54;;;;;;;5.80;3.87;;;1.30;99.90;;;;;;4933936;29;20469;-76
2021/12/03 00:24:19;;;;;;;7.27;4.63;;;1.30;99.90;;;;;;4933093;29;20186;-76
2021/12/03 00:26:45;;;;;;;5.77;3.93;;;1.20;99.90;;;;;;4932886;29;20187;-75
2021/12/03 00:29:11;;;;;;;5.60;4.33;;;1.20;99.90;;;;;;4934011;29;20194;-75
2021/12/03 00:31:37;;;;;;;8.90;4.60;;;1.10;99.90;;;;;;4933711;29;20219;-75
2021/12/03 00:34:03;;;;;;;6.93;4.80;;;1.10;99.90;;;;;;4933981;29;20415;-75
2021/12/03 00:36:28;;;;;;;8.13;4.40;;;1.10;99.90;;;;;;4933975;29;20177;-76
2021/12/03 00:38:57;;;;;;;7.70;4.70;;;1.10;99.90;;;;;;4936979;29;20181;-76
2021/12/03 00:41:22;;;;;;;8.50;4.70;;;1.10;99.90;;;;;;4937250;29;20240;-76
2021/12/03 00:43:52;;;;;;;6.77;4.27;;;1.10;99.90;;;;;;4937069;29;20966;-75
2021/12/03 00:46:19;;;;;;;6.97;4.63;;;1.10;99.90;;;;;;4937306;29;20197;-75
2021/12/03 00:48:47;;;;;;;6.10;4.77;;;1.00;99.90;;;;;;4937180;29;20493;-76
2021/12/03 00:51:12;;;;;;;7.73;5.60;;;1.00;99.90;;;;;;4936854;29;20449;-76
2021/12/03 00:53:39;;;;;;;6.63;4.30;;;1.00;99.90;;;;;;4936794;29;20421;-76
2021/12/03 00:56:06;;;;;;;7.23;5.90;;;1.00;99.90;;;;;;4937205;29;20187;-76
2021/12/03 00:58:32;;;;;;;11.13;5.80;;;0.90;99.90;;;;;;4937030;29;20419;-75
2021/12/03 05:31:56;;;;;;;9.73;7.10;;;1.10;99.90;;;;;;5467101;23;20903;-80
2021/12/03 05:34:23;;;;;;;8.40;6.80;;;1.10;99.90;;;;;;4957956;28;20453;-80
2021/12/03 05:36:49;;;;;;;7.87;6.30;;;1.10;99.90;;;;;;4958076;28;20173;-80
2021/12/03 05:39:14;;;;;;;6.27;5.67;;;1.10;99.90;;;;;;4958510;28;20409;-80
2021/12/03 05:41:40;;;;;;;8.90;5.40;;;1.10;99.90;;;;;;4958154;28;20201;-79
2021/12/03 05:44:06;;;;;;;6.40;5.50;;;1.10;99.90;;;;;;4958991;28;20662;-79
2021/12/03 05:46:32;;;;;;;11.00;5.83;;;1.10;99.90;;;;;;4948773;28;20505;-80
2021/12/03 05:48:58;;;;;;;8.30;5.70;;;1.10;99.90;;;;;;4957637;28;20191;-80
2021/12/03 05:51:26;;;;;;;9.50;6.40;;;1.10;99.90;;;;;;4957225;28;20991;-80
2021/12/03 05:53:52;;;;;;;8.47;6.13;;;1.10;99.90;;;;;;4957792;28;20206;-80
2021/12/03 05:56:18;;;;;;;8.60;6.93;;;1.10;99.90;;;;;;4957108;28;20443;-80
2021/12/03 05:58:44;;;;;;;7.73;6.00;;;1.10;99.90;;;;;;4957418;28;20444;-80
2021/12/03 06:01:10;;;;;;;10.10;7.33;;;1.10;99.90;;;;;;4957507;28;20197;-80
2021/12/03 06:03:35;;;;;;;7.67;5.93;;;1.10;99.90;;;;;;4956842;28;20463;-80
2021/12/03 06:06:01;;;;;;;7.90;5.50;;;1.10;99.90;;;;;;4957820;28;20177;-80
2021/12/03 06:08:27;;;;;;;5.97;5.40;;;1.10;99.90;;;;;;4957221;28;20240;-80
2021/12/03 06:10:52;;;;;;;9.60;5.40;;;1.10;99.90;;;;;;4957499;28;20681;-80
2021/12/03 06:13:18;;;;;;;7.90;5.37;;;1.10;99.90;;;;;;4957126;28;20259;-80
2021/12/03 06:15:43;;;;;;;7.33;5.70;;;1.10;99.90;;;;;;4957265;28;20170;-80
2021/12/03 06:18:09;;;;;;;6.97;5.20;;;1.10;99.90;;;;;;4957385;28;20184;-80
2021/12/03 06:20:35;;;;;;;6.33;5.23;;;1.00;99.90;;;;;;4957041;28;20197;-81
2021/12/03 06:23:00;;;;;;;6.00;4.80;;;1.00;99.90;;;;;;4956566;28;20209;-80
2021/12/03 06:25:26;;;;;;;5.17;4.67;;;1.00;99.90;;;;;;4957186;28;20974;-80
2021/12/03 06:27:56;;;;;;;6.30;5.70;;;1.10;99.90;;;;;;4956840;28;20230;-80
2021/12/03 06:30:22;;;;;;;10.80;5.23;;;1.00;99.90;;;;;;4956986;28;20174;-80
2021/12/03 06:32:47;;;;;;;8.03;5.50;;;1.00;99.90;;;;;;4955124;29;20422;-80
2021/12/03 06:35:14;;;;;;;6.57;5.60;;;0.90;99.90;;;;;;4956105;28;20194;-80
2021/12/03 06:37:40;;;;;;;10.97;6.80;;;0.80;99.90;;;;;;4957015;28;20216;-80
2021/12/03 06:40:10;;;;;;;6.67;5.20;;;0.80;99.90;;;;;;4957508;28;20890;-80
2021/12/03 06:42:36;;;;;;;8.33;5.90;;;0.80;99.90;;;;;;4956807;28;20462;-80
2021/12/03 06:45:05;;;;;;;7.53;5.90;;;0.70;99.90;;;;;;4956484;28;20426;-80
2021/12/03 06:47:31;;;;;;;7.43;5.50;;;0.70;99.90;;;;;;4956759;28;20169;-80
2021/12/03 06:49:57;;;;;;;10.20;5.90;;;0.60;99.90;;;;;;4956803;28;20416;-80
2021/12/03 06:52:23;;;;;;;9.07;7.30;;;0.60;99.90;;;;;;4956208;28;20417;-80
2021/12/03 06:54:55;;;;;;;7.40;6.17;;;0.50;99.90;;;;;;4956475;28;20213;-81
2021/12/03 06:57:21;;;;;;;9.63;7.20;;;0.50;99.90;;;;;;4956783;28;20184;-80
2021/12/03 06:59:46;;;;;;;8.30;6.40;;;0.50;99.90;;;;;;4956970;28;21032;-81
2021/12/03 07:02:13;;;;;;;8.90;7.03;;;0.40;99.90;;;;;;4956709;28;20212;-82
2021/12/03 07:04:40;;;;;;;7.50;6.40;;;0.50;99.90;;;;;;4956935;28;20204;-82
2021/12/03 07:07:05;;;;;;;11.33;7.40;;;0.50;99.90;;;;;;4957880;28;20899;-82
2021/12/03 07:09:31;;;;;;;8.83;6.97;;;0.50;99.90;;;;;;4957990;28;20454;-82
2021/12/03 07:11:56;;;;;;;7.00;5.97;;;0.50;99.90;;;;;;4957253;28;20205;-82
2021/12/03 07:14:22;;;;;;;8.33;6.80;;;0.50;99.90;;;;;;4956955;28;20184;-82
2021/12/03 07:16:48;;;;;;;10.27;7.07;;;0.40;99.90;;;;;;4957333;28;20232;-83
2021/12/03 07:19:13;;;;;;;10.00;7.67;;;0.50;99.90;;;;;;4956959;28;20634;-82
2021/12/03 07:21:40;;;;;;;13.60;8.20;;;0.50;99.90;;;;;;4958876;28;20259;-82
2021/12/03 07:24:09;;;;;;;16.47;9.97;;;0.50;99.90;;;;;;4958499;28;20457;-82
2021/12/03 07:26:35;;;;;;;15.80;10.37;;;0.50;99.90;;;;;;4957836;28;20423;-82
2021/12/03 07:29:01;;;;;;;26.43;12.20;;;0.40;99.90;;;;;;4958901;28;20885;-82
2021/12/03 07:31:27;;;;;;;15.93;9.20;;;0.30;99.90;;;;;;4960034;28;20696;-83
2021/12/03 07:33:54;;;;;;;8.90;6.27;;;0.30;99.90;;;;;;4959368;28;20420;-83
2021/12/03 07:36:20;;;;;;;5.47;4.93;;;0.30;99.90;;;;;;4959131;28;20898;-83
2021/12/03 07:38:46;;;;;;;8.20;5.50;;;0.30;99.90;;;;;;4959271;28;20970;-83
2021/12/03 07:41:12;;;;;;;7.80;4.97;;;0.30;99.90;;;;;;4959391;28;20516;-83
2021/12/03 07:43:37;;;;;;;7.37;5.20;;;0.30;99.90;;;;;;4958981;28;20287;-83
2021/12/03 07:46:04;;;;;;;8.40;5.37;;;0.30;99.90;;;;;;4960745;28;20450;-83
2021/12/03 07:48:30;;;;;;;6.07;5.07;;;0.40;99.90;;;;;;4965496;28;20176;-83
2021/12/03 07:50:57;;;;;;;9.10;4.43;;;0.40;99.90;;;;;;4964982;28;20436;-83
2021/12/03 07:53:23;;;;;;;8.07;4.70;;;0.50;99.90;;;;;;4965263;28;20437;-83
2021/12/03 07:55:51;;;;;;;7.63;4.70;;;0.50;99.90;;;;;;4965948;28;20387;-83
2021/12/03 07:58:17;;;;;;;7.57;4.70;;;0.60;99.90;;;;;;4964912;28;20954;-84
2021/12/03 08:00:44;;;;;;;4.90;4.10;;;0.70;99.90;;;;;;4964762;28;20779;-83
2021/12/03 08:03:10;;;;;;;4.63;4.23;;;0.70;99.90;;;;;;4964493;28;20484;-83
2021/12/03 08:05:36;;;;;;;5.20;4.10;;;0.90;99.90;;;;;;4964524;28;20413;-83
2021/12/03 08:08:02;;;;;;;10.10;4.30;;;1.00;99.90;;;;;;4964622;28;20416;-83
2021/12/03 08:10:28;;;;;;;4.90;3.90;;;1.10;99.90;;;;;;4963006;28;20168;-83
2021/12/03 08:12:54;;;;;;;5.80;4.70;;;1.30;99.90;;;;;;4960835;28;20395;-83
2021/12/03 08:15:20;;;;;;;4.03;3.63;;;1.40;99.90;;;;;;4959646;28;20428;-83
2021/12/03 08:17:49;;;;;;;9.80;3.57;;;1.50;99.90;;;;;;4961836;28;20223;-83
2021/12/03 08:20:17;;;;;;;4.90;4.00;;;1.50;99.90;;;;;;4961554;28;20462;-83
2021/12/03 08:22:43;;;;;;;3.73;3.33;;;1.60;99.90;;;;;;4960578;28;20765;-82
2021/12/03 08:25:10;;;;;;;4.87;4.37;;;1.60;99.90;;;;;;4960530;28;20483;-83
2021/12/03 08:27:36;;;;;;;3.57;3.27;;;1.60;99.90;;;;;;4962565;28;20418;-82
2021/12/03 08:30:04;;;;;;;4.20;3.33;;;1.50;99.90;;;;;;4962219;28;20412;-82
2021/12/03 08:32:30;;;;;;;4.00;3.70;;;1.50;99.90;;;;;;4959911;28;21006;-83
2021/12/03 08:34:56;;;;;;;5.23;3.20;;;1.60;99.90;;;;;;4964633;28;20504;-82
2021/12/03 08:37:21;;;;;;;4.90;2.70;;;1.60;99.90;;;;;;4965976;28;20191;-83
2021/12/03 08:39:47;;;;;;;4.63;3.03;;;1.70;99.90;;;;;;4962929;28;20239;-83
2021/12/03 08:42:13;;;;;;;4.60;2.97;;;1.80;99.90;;;;;;4964270;28;20297;-83
2021/12/03 08:44:40;;;;;;;3.00;2.80;;;1.80;99.90;;;;;;4963774;28;20186;-83
2021/12/03 08:47:07;;;;;;;3.63;2.90;;;1.80;99.90;;;;;;4964352;28;20173;-83
2021/12/03 08:49:38;;;;;;;2.50;2.40;;;1.80;99.90;;;;;;4963578;28;20390;-83
2021/12/03 08:57:20;;;;;;;6.03;2.53;;;2.00;99.90;;;;;;4962835;28;20499;-83
2021/12/03 08:59:46;;;;;;;4.17;2.23;;;2.10;99.90;;;;;;4960066;28;20402;-83
2021/12/03 09:02:11;;;;;;;2.87;2.40;;;2.40;99.90;;;;;;4958565;29;20533;-84
2021/12/03 09:04:37;;;;;;;3.30;2.40;;;2.90;99.90;;;;;;4960103;28;20498;-83
2021/12/03 09:07:04;;;;;;;4.17;2.10;;;3.70;99.90;;;;;;4960239;28;20181;-84
2021/12/03 09:09:30;;;;;;;4.13;2.23;;;4.60;99.90;;;;;;4962009;28;20201;-83
2021/12/03 09:11:57;;;;;;;2.17;2.00;;;5.20;99.90;;;;;;4960159;28;20451;-83
2021/12/03 09:14:38;;;;;;;3.10;1.97;;;5.40;99.90;;;;;;4958614;28;20450;-84
2021/12/03 09:25:34;;;;;;;7.07;1.70;;;6.10;99.90;;;;;;4953136;28;20466;-82
2021/12/03 09:28:02;;;;;;;1.23;1.10;;;6.20;99.90;;;;;;4957233;28;20405;-83
2021/12/03 09:30:35;;;;;;;1.70;1.47;;;6.10;99.90;;;;;;4955697;28;20429;-82
2021/12/03 09:33:02;;;;;;;4.70;1.97;;;6.00;99.90;;;;;;4956972;28;20457;-82
2021/12/03 09:35:29;;;;;;;2.00;1.83;;;6.10;99.90;;;;;;4955644;28;20431;-82
2021/12/03 09:37:55;;;;;;;1.20;1.20;;;6.10;99.90;;;;;;4957305;28;20422;-82
2021/12/03 09:40:23;;;;;;;5.07;1.70;;;6.40;99.90;;;;;;4956972;28;20434;-84
2021/12/03 09:42:49;;;;;;;2.60;1.17;;;6.30;99.90;;;;;;4957231;28;20206;-83
2021/12/03 09:45:15;;;;;;;2.60;1.90;;;6.50;99.90;;;;;;4955716;29;20464;-82
2021/12/03 09:47:41;;;;;;;1.60;1.40;;;6.70;99.90;;;;;;4957437;28;20200;-83
2021/12/03 09:50:14;;;;;;;2.50;1.57;;;6.80;99.90;;;;;;4956467;28;20475;-83
2021/12/03 09:55:17;;;;;;;1.60;1.40;;;6.60;99.90;;;;;;4957749;28;20494;-82
2021/12/03 09:57:57;;;;;;;3.50;2.40;;;6.80;99.90;;;;;;4956985;28;20448;-83
2021/12/03 10:03:11;;;;;;;2.73;2.30;;;6.80;99.90;;;;;;4956863;28;20489;-83
2021/12/03 10:11:51;;;;;;;3.97;1.77;;;7.10;99.90;;;;;;4956768;29;20455;-81
2021/12/03 10:30:34;;;;;;;4.40;2.20;;;7.40;99.90;;;;;;4959018;29;20412;-81
2021/12/03 10:38:57;;;;;;;3.10;2.10;;;7.20;99.90;;;;;;4958423;29;20455;-83
2021/12/03 11:03:34;;;;;;;4.70;2.00;;;6.50;99.90;;;;;;4956962;29;20459;-83
2021/12/03 11:56:00;;;;;;;3.60;2.83;;;4.30;99.90;;;;;;4976103;28;20385;-83
2021/12/03 12:10:39;;;;;;;9.03;2.80;;;4.40;99.90;;;;;;4975790;28;20475;-83
2021/12/03 14:02:03;;;;;;;3.03;1.97;;;3.70;99.90;;;;;;4915777;29;20428;-85
2021/12/03 14:54:24;;;;;;;4.93;1.13;;;3.30;99.90;;;;;;4955797;28;20940;-85
2021/12/03 14:57:10;;;;;;;1.50;1.37;;;3.20;99.90;;;;;;4956317;28;20420;-84
2021/12/03 14:59:38;;;;;;;1.87;1.50;;;3.20;99.90;;;;;;4955051;28;20460;-85
2021/12/03 15:02:33;;;;;;;2.63;1.47;;;3.10;99.90;;;;;;4956527;28;20520;-85
2021/12/03 15:05:47;;;;;;;2.83;1.30;;;3.10;99.90;;;;;;4955859;28;20868;-85
2021/12/03 15:07:51;;;;;;;1.83;1.27;;;3.10;99.90;;;;;;4953360;29;20437;-85
2021/12/03 15:26:02;;;;;;;8.93;3.20;;;2.80;99.90;;;;;;4955527;28;20633;-85
2021/12/03 15:29:38;;;;;;;1.77;1.67;;;2.80;99.90;;;;;;4956082;28;20349;-84
2021/12/03 15:31:27;;;;;;;6.13;2.17;;;2.70;99.90;;;;;;4932426;29;20560;-83
2021/12/03 15:34:43;;;;;;;6.00;2.27;;;2.70;99.90;;;;;;4934762;29;20490;-85
2021/12/03 15:37:03;;;;;;;1.73;1.57;;;2.70;99.90;;;;;;4928989;29;20761;-85
2021/12/03 15:58:21;;;;;;;1.90;1.57;;;2.30;99.90;;;;;;4902349;29;20196;-80
2021/12/03 16:03:41;;;;;;;3.10;1.90;;;2.20;99.90;;;;;;4938156;29;20454;-81
2021/12/03 16:08:41;;;;;;;3.10;2.10;;;2.10;99.90;;;;;;4942485;29;20513;-81
2021/12/03 16:11:22;;;;;;;1.90;1.70;;;2.00;99.90;;;;;;4941654;29;20437;-80
2021/12/03 16:21:52;;;;;;;4.60;2.30;;;1.90;99.90;;;;;;4942503;29;20411;-81
2021/12/03 16:27:14;;;;;;;2.03;1.77;;;1.80;99.90;;;;;;4941606;29;20417;-82
2021/12/03 16:46:25;;;;;;;3.70;2.33;;;1.80;99.90;;;;;;4939933;29;20427;-82
2021/12/03 16:49:40;;;;;;;9.47;2.60;;;1.80;99.90;;;;;;4939177;29;20840;-82
2021/12/03 16:51:53;;;;;;;3.33;2.33;;;1.80;99.90;;;;;;4937763;29;20444;-83
2021/12/03 16:54:25;;;;;;;4.90;2.67;;;1.80;99.90;;;;;;4937627;29;20425;-84
2021/12/03 16:56:53;;;;;;;3.87;2.37;;;1.80;99.90;;;;;;4937488;29;20750;-83
2021/12/03 16:59:20;;;;;;;3.10;2.20;;;1.80;99.90;;;;;;4939951;29;20450;-83
2021/12/03 17:14:34;;;;;;;4.17;2.23;;;2.10;99.90;;;;;;4959427;28;20191;-83
2021/12/03 17:28:35;;;;;;;5.57;2.57;;;2.30;99.90;;;;;;4956916;28;20863;-83
2021/12/03 17:44:40;;;;;;;5.20;2.70;;;2.40;99.90;;;;;;4988444;28;20871;-71
2021/12/03 17:56:03;;;;;;;3.10;2.60;;;2.50;99.90;;;;;;5008830;28;20426;-72
2021/12/03 18:01:02;;;;;;;2.63;2.43;;;2.60;99.90;;;;;;4997369;28;21010;-72
2021/12/03 18:08:52;;;;;;;5.77;2.47;;;2.60;99.90;;;;;;5008260;28;20174;-72
2021/12/03 18:17:00;;;;;;;6.80;3.10;;;2.60;99.90;;;;;;4991901;28;20508;-72
2021/12/03 18:44:09;;;;;;;3.33;2.97;;;2.60;99.90;;;;;;4992693;28;20453;-72
2021/12/03 18:51:48;;;;;;;8.93;2.53;;;2.60;99.90;;;;;;4993650;28;21089;-72
2021/12/03 18:54:34;;;;;;;4.17;2.37;;;2.60;99.90;;;;;;4993954;28;20216;-73
2021/12/03 18:57:21;;;;;;;2.30;2.20;;;2.70;99.90;;;;;;4984627;28;20447;-73
2021/12/03 18:59:58;;;;;;;3.97;2.80;;;2.70;99.90;;;;;;4979991;28;21075;-72
2021/12/03 19:02:25;;;;;;;2.53;2.33;;;2.70;99.90;;;;;;4994015;28;20437;-73
2021/12/03 19:08:02;;;;;;;3.67;2.63;;;2.70;99.90;;;;;;4992775;28;20524;-73
2021/12/03 19:10:30;;;;;;;5.90;3.40;;;2.70;99.90;;;;;;4981670;28;20918;-72
2021/12/03 19:13:03;;;;;;;5.67;2.80;;;2.70;99.90;;;;;;4993538;28;20454;-72
2021/12/03 19:15:29;;;;;;;9.27;2.90;;;2.70;99.90;;;;;;4982497;28;20467;-73
2021/12/03 19:17:59;;;;;;;3.40;3.10;;;2.80;99.90;;;;;;4993561;28;20980;-72
2021/12/03 19:20:28;;;;;;;3.57;3.03;;;2.80;99.90;;;;;;4984689;28;20468;-72
2021/12/03 19:22:53;;;;;;;4.23;3.83;;;2.80;99.90;;;;;;4990772;28;20537;-72
2021/12/03 19:25:19;;;;;;;4.53;2.13;;;2.80;99.90;;;;;;4991917;28;20550;-72
2021/12/03 19:27:45;;;;;;;2.50;2.30;;;2.80;99.90;;;;;;4992772;28;20242;-72
2021/12/03 19:30:11;;;;;;;6.93;2.63;;;2.90;99.90;;;;;;4992911;28;20284;-72
2021/12/03 19:32:38;;;;;;;6.33;2.90;;;2.90;99.90;;;;;;4981396;28;20302;-72
2021/12/03 19:35:04;;;;;;;2.93;2.67;;;2.90;99.90;;;;;;4993193;28;20535;-73
2021/12/03 19:37:31;;;;;;;3.70;3.33;;;2.90;99.90;;;;;;4993541;28;20799;-72
2021/12/03 19:40:00;;;;;;;8.57;3.83;;;2.90;99.90;;;;;;4991769;28;20525;-71
2021/12/03 19:42:38;;;;;;;3.30;3.10;;;2.90;99.90;;;;;;4981185;28;20470;-71
2021/12/03 19:45:07;;;;;;;5.30;3.23;;;2.90;99.90;;;;;;4982782;28;20480;-72
2021/12/03 19:53:00;;;;;;;5.67;3.33;;;3.00;99.90;;;;;;4983022;28;20472;-71
2021/12/03 19:55:26;;;;;;;6.67;3.27;;;3.00;99.90;;;;;;4989754;28;20964;-72
2021/12/03 19:57:51;;;;;;;4.13;2.60;;;3.00;99.90;;;;;;4993076;28;20975;-72
2021/12/03 20:00:18;;;;;;;3.03;2.83;;;3.00;99.90;;;;;;4992943;28;20467;-71
2021/12/03 20:02:43;;;;;;;4.87;3.20;;;3.00;99.90;;;;;;4991666;28;20695;-69
2021/12/03 20:05:09;;;;;;;4.40;3.03;;;3.00;99.90;;;;;;4981900;28;20549;-72
2021/12/03 20:07:35;;;;;;;3.20;2.90;;;3.10;99.90;;;;;;4992709;28;20219;-71
2021/12/03 20:10:09;;;;;;;2.90;2.63;;;3.10;99.90;;;;;;4992787;28;20215;-71
2021/12/03 20:12:35;;;;;;;5.10;3.80;;;3.10;99.90;;;;;;4980701;28;20541;-72
2021/12/03 20:15:05;;;;;;;3.80;3.50;;;3.10;99.90;;;;;;4980360;28;20479;-71
2021/12/03 20:17:46;;;;;;;5.40;3.60;;;3.10;99.90;;;;;;4991938;28;20541;-72
2021/12/03 20:20:13;;;;;;;3.33;3.00;;;3.10;99.90;;;;;;4992571;28;20451;-71
2021/12/03 20:22:55;;;;;;;6.70;3.43;;;3.20;99.90;;;;;;4992025;28;20988;-72
2021/12/03 20:25:38;;;;;;;7.03;3.40;;;3.20;99.90;;;;;;4983960;28;20978;-72
2021/12/03 20:28:07;;;;;;;3.30;3.00;;;3.20;99.90;;;;;;4992239;28;20834;-72
2021/12/03 20:30:37;;;;;;;7.00;3.77;;;3.20;99.90;;;;;;4993720;28;20474;-71
2021/12/03 20:38:32;;;;;;;3.13;2.87;;;3.20;99.90;;;;;;4988313;28;20966;-72
2021/12/03 20:41:01;;;;;;;3.87;3.20;;;3.20;99.90;;;;;;4991415;28;20449;-72
2021/12/03 20:52:08;;;;;;;4.50;4.10;;;3.20;99.90;;;;;;4991893;28;20836;-72
2021/12/03 20:57:11;;;;;;;5.07;3.80;;;3.20;99.90;;;;;;4980542;28;20431;-72
2021/12/03 20:57:52;;;;;;;5.17;3.90;;;3.10;99.90;;;;;;4974987;28;20471;-72
2021/12/03 21:08:36;;;;;;;8.43;2.90;;;3.20;99.90;;;;;;4984417;28;20472;-72
2021/12/03 21:11:06;;;;;;;4.40;4.00;;;3.20;99.90;;;;;;4987545;28;20885;-72
2021/12/03 21:13:36;;;;;;;11.13;4.00;;;3.20;99.90;;;;;;4991370;28;20820;-71
2021/12/03 21:18:47;;;;;;;5.87;3.80;;;3.20;99.90;;;;;;4987083;28;20879;-72
2021/12/03 21:21:31;;;;;;;4.10;3.30;;;3.30;99.90;;;;;;4982315;28;20519;-72
2021/12/03 21:23:56;;;;;;;3.53;3.20;;;3.20;99.90;;;;;;4991510;28;20505;-72
2021/12/03 21:26:24;;;;;;;6.20;3.33;;;3.30;99.90;;;;;;4991513;28;20541;-72
2021/12/03 21:31:44;;;;;;;5.03;3.30;;;3.30;99.90;;;;;;4978165;28;20477;-72
2021/12/03 21:39:43;;;;;;;2.93;2.60;;;3.30;99.90;;;;;;4991708;28;20584;-72
2021/12/03 21:42:08;;;;;;;3.43;3.13;;;3.30;99.90;;;;;;4979895;28;20481;-71
2021/12/03 21:44:34;;;;;;;4.50;2.97;;;3.30;99.90;;;;;;4991181;28;20960;-72
2021/12/03 21:46:59;;;;;;;3.20;3.00;;;3.10;99.90;;;;;;4991666;28;20241;-72
2021/12/03 21:49:25;;;;;;;2.73;2.53;;;3.00;99.90;;;;;;4992549;28;20302;-72
2021/12/03 21:51:50;;;;;;;3.47;2.83;;;2.90;99.90;;;;;;4984818;28;20718;-72
2021/12/03 21:54:16;;;;;;;2.87;2.13;;;2.90;99.90;;;;;;4984786;28;22856;-72
2021/12/03 21:56:45;;;;;;;3.10;2.80;;;2.90;99.90;;;;;;4991227;28;20306;-72
2021/12/03 21:59:12;;;;;;;5.40;2.47;;;2.80;99.90;;;;;;4991190;28;20458;-72
2021/12/03 22:01:39;;;;;;;5.63;3.10;;;2.80;99.90;;;;;;4986259;28;20568;-71
2021/12/03 22:04:04;;;;;;;3.30;3.00;;;2.90;99.90;;;;;;4988948;28;20450;-72
2021/12/03 22:06:30;;;;;;;5.00;2.77;;;2.90;99.90;;;;;;4990995;28;20476;-72
2021/12/03 22:08:57;;;;;;;4.07;2.10;;;2.90;99.90;;;;;;4991297;28;20208;-72
2021/12/03 22:11:27;;;;;;;4.50;3.00;;;3.00;99.90;;;;;;4989763;28;20493;-72
2021/12/03 22:13:53;;;;;;;3.30;2.30;;;3.10;99.90;;;;;;4975659;28;20481;-72
2021/12/03 22:16:19;;;;;;;3.80;2.80;;;3.10;99.90;;;;;;4991518;28;20437;-72
2021/12/03 22:18:48;;;;;;;3.97;2.90;;;3.20;99.90;;;;;;4992444;28;20464;-72
2021/12/03 22:21:15;;;;;;;2.50;2.30;;;3.20;99.90;;;;;;4994891;28;20518;-72
2021/12/03 22:23:43;;;;;;;6.10;2.73;;;3.20;99.90;;;;;;4992875;28;20435;-72
2021/12/03 22:26:10;;;;;;;7.80;2.97;;;3.20;99.90;;;;;;5008146;28;20422;-72
2021/12/03 22:28:37;;;;;;;3.33;3.03;;;3.20;99.90;;;;;;4997186;28;20478;-73
2021/12/03 22:31:03;;;;;;;2.67;2.40;;;3.20;99.90;;;;;;4994764;28;20522;-73
2021/12/03 22:33:29;;;;;;;3.00;2.37;;;3.30;99.90;;;;;;4994864;28;20410;-73
2021/12/03 22:35:55;;;;;;;2.10;2.00;;;3.30;99.90;;;;;;4995200;28;20381;-73
2021/12/03 22:38:21;;;;;;;4.00;2.87;;;3.30;99.90;;;;;;4995016;28;20172;-73
2021/12/03 22:40:49;;;;;;;4.47;2.93;;;3.40;99.90;;;;;;4993946;28;20429;-74
2021/12/03 22:43:15;;;;;;;3.63;2.37;;;3.40;99.90;;;;;;4994002;28;20859;-73
2021/12/03 22:48:45;;;;;;;4.70;1.97;;;3.40;99.90;;;;;;4990202;28;20788;-73
2021/12/03 22:53:39;;;;;;;2.20;2.07;;;3.40;99.90;;;;;;4993632;28;20514;-72
2021/12/03 22:56:06;;;;;;;6.40;2.23;;;3.40;99.90;;;;;;4994236;28;20480;-72
2021/12/03 22:58:32;;;;;;;2.43;2.23;;;3.40;99.90;;;;;;4993110;28;20766;-73
2021/12/03 23:01:03;;;;;;;3.00;2.73;;;3.40;99.90;;;;;;4994052;28;20427;-73
2021/12/03 23:03:30;;;;;;;5.43;3.10;;;3.40;99.90;;;;;;4994333;28;20396;-73
2021/12/03 23:05:57;;;;;;;4.10;2.40;;;3.40;99.90;;;;;;4994878;28;20418;-73
2021/12/03 23:08:24;;;;;;;4.70;2.63;;;3.40;99.90;;;;;;4994592;28;20757;-73
2021/12/03 23:10:51;;;;;;;3.73;2.53;;;3.40;99.90;;;;;;4994458;28;20469;-73
2021/12/03 23:13:17;;;;;;;4.13;1.77;;;3.40;99.90;;;;;;4994287;28;20458;-73
2021/12/03 23:15:43;;;;;;;3.13;2.40;;;3.40;99.90;;;;;;4994357;28;20445;-73
2021/12/03 23:18:10;;;;;;;2.50;2.30;;;3.40;99.90;;;;;;4994480;28;20790;-72
2021/12/03 23:20:38;;;;;;;9.03;2.27;;;3.50;99.90;;;;;;4994225;28;20168;-73
2021/12/03 23:23:03;;;;;;;2.70;2.20;;;3.50;99.90;;;;;;4994314;28;20406;-73
2021/12/03 23:25:30;;;;;;;3.00;2.30;;;3.50;99.90;;;;;;4994193;28;20424;-73
2021/12/03 23:27:56;;;;;;;2.87;2.60;;;3.50;99.90;;;;;;4994334;28;20182;-73
2021/12/03 23:30:22;;;;;;;2.10;1.83;;;3.50;99.90;;;;;;4994162;28;20410;-74
2021/12/03 23:32:47;;;;;;;5.60;1.70;;;3.50;99.90;;;;;;4992511;28;20214;-71
2021/12/03 23:35:13;;;;;;;2.73;2.40;;;3.50;99.90;;;;;;4994485;28;20389;-74
2021/12/03 23:37:39;;;;;;;3.63;2.50;;;3.50;99.90;;;;;;4994008;28;20176;-73
2021/12/03 23:40:05;;;;;;;2.40;2.07;;;3.50;99.90;;;;;;4994119;28;20176;-73
2021/12/03 23:42:31;;;;;;;4.33;1.97;;;3.50;99.90;;;;;;4992467;28;20229;-74
2021/12/03 23:44:57;;;;;;;3.50;1.87;;;3.50;99.90;;;;;;4993941;28;20415;-74
2021/12/03 23:47:22;;;;;;;2.30;1.97;;;3.50;99.90;;;;;;4993953;28;20178;-73
2021/12/03 23:49:48;;;;;;;2.30;2.10;;;3.50;99.90;;;;;;4993867;28;20669;-73
2021/12/03 23:52:14;;;;;;;2.90;2.40;;;3.50;99.90;;;;;;4993767;28;20212;-74
2021/12/03 23:54:40;;;;;;;1.90;1.80;;;3.50;99.90;;;;;;4993465;28;20173;-74
2021/12/03 23:57:08;;;;;;;4.03;2.40;;;3.50;99.90;;;;;;4994278;28;20462;-73
2021/12/03 23:59:35;;;;;;;1.83;1.73;;;3.50;99.90;;;;;;4993436;28;20199;-74
